»·PEaware :: N799DS KSMX-KOXR

N799DS :: KSMX-KOXR

FLIGHT INFORMATION

Flight Status: Arrived
Operator: Privately registered:
United States
More flights under this callsign
Pilot: Wolfgang B. (15069)
Aircraft: CESSNA 172 SKYHAWK
(C172)
More flights by this aircraft type
Origin: KSMX Santa Maria Pub/Capt Hancock
United States
Destination: KOXR Oxnard
United States
More flights between these airports :: More routes between these airports
Route: +RZS VTU
File this flight plan on PilotEdge
Remarks:
Altitude:
(Current/Filed)
5,000ft
Speed:
(Current/Filed)
120kts
Departed: 22-Sep-18 02:25 PM
Arrived: 22-Sep-18 03:32 PM
Distance/Time
Traveled:
75nm/1:07
Distance/Time
To Go:
Arrived

Flight Plot

Page will automatically refresh every two minutes.


Map Options




Map Legend


Flown Route
Filed Route
Departure Airport
Arrival Airport
Navaid (VOR, NDB)
Fix

Horizontal Profiles

Position Reports

Time Latitude Longitude Heading Altitude Ground
Speed
22-Sep-18 13:51 34.895841 -120.444809 314 265ft 0kts
22-Sep-18 13:52 34.895841 -120.444809 314 265ft 0kts
22-Sep-18 13:53 34.895841 -120.444809 314 265ft 0kts
22-Sep-18 13:54 34.895841 -120.444809 314 265ft 0kts
22-Sep-18 13:55 34.895841 -120.444809 314 265ft 0kts
22-Sep-18 13:56 34.895841 -120.444809 314 265ft 0kts
22-Sep-18 13:57 34.895841 -120.444809 314 265ft 0kts
22-Sep-18 13:58 34.895841 -120.444809 314 265ft 0kts
22-Sep-18 13:59 34.895841 -120.444809 314 265ft 0kts
22-Sep-18 14:00 34.895841 -120.444809 314 265ft 0kts
22-Sep-18 14:01 34.895841 -120.444809 314 265ft 0kts
22-Sep-18 14:02 34.895841 -120.444809 314 265ft 0kts
22-Sep-18 14:03 34.895841 -120.444809 314 265ft 0kts
22-Sep-18 14:04 34.895841 -120.444809 314 265ft 0kts
22-Sep-18 14:05 34.895841 -120.444809 314 265ft 0kts
22-Sep-18 14:06 34.895841 -120.444809 314 265ft 0kts
22-Sep-18 14:07 34.895841 -120.444809 314 265ft 0kts
22-Sep-18 14:08 34.895841 -120.444809 314 265ft 0kts
22-Sep-18 14:09 34.895841 -120.444809 314 265ft 0kts
22-Sep-18 14:10 34.895841 -120.444809 314 265ft 0kts
22-Sep-18 14:11 34.895841 -120.444809 314 265ft 0kts
22-Sep-18 14:12 34.895841 -120.444809 314 265ft 0kts
22-Sep-18 14:13 34.895841 -120.444809 314 265ft 0kts
22-Sep-18 14:14 34.895841 -120.444809 314 265ft 0kts
22-Sep-18 14:15 34.895841 -120.444809 314 265ft 0kts
22-Sep-18 14:16 34.895841 -120.444809 314 265ft 0kts
22-Sep-18 14:17 34.895841 -120.444809 314 265ft 0kts
22-Sep-18 14:18 34.895578 -120.445275 163 265ft 6kts
22-Sep-18 14:19 34.894385 -120.445120 174 265ft 7kts
22-Sep-18 14:20 34.893348 -120.444940 182 265ft 0kts
22-Sep-18 14:21 34.893348 -120.444940 182 265ft 0kts
22-Sep-18 14:22 34.893348 -120.444940 182 265ft 0kts
22-Sep-18 14:23 34.893348 -120.444940 182 265ft 0kts
22-Sep-18 14:24 34.893333 -120.444941 182 265ft 0kts
22-Sep-18 14:25 34.893333 -120.444941 182 265ft 0kts
22-Sep-18 14:26 34.892772 -120.445750 314 265ft 0kts
22-Sep-18 14:27 34.902644 -120.454954 320 679ft 68kts
22-Sep-18 14:28 34.911351 -120.446534 114 1574ft 78kts
22-Sep-18 14:29 34.903127 -120.421611 121 2433ft 81kts
22-Sep-18 14:30 34.895207 -120.395899 111 3273ft 82kts
22-Sep-18 14:31 34.887713 -120.369290 114 4058ft 84kts
22-Sep-18 14:32 34.880068 -120.342300 109 4810ft 86kts
22-Sep-18 14:33 34.871245 -120.309036 113 5079ft 124kts
22-Sep-18 14:34 34.859518 -120.266792 113 4975ft 130kts
22-Sep-18 14:35 34.848748 -120.226038 111 4949ft 123kts
22-Sep-18 14:36 34.835392 -120.188796 141 5005ft 114kts
22-Sep-18 14:37 34.817261 -120.183610 183 4993ft 108kts
22-Sep-18 14:38 34.805381 -120.182902 181 5000ft 108kts
22-Sep-18 14:39 34.774857 -120.180781 181 4961ft 112kts
22-Sep-18 14:40 34.743029 -120.178672 181 4952ft 115kts
22-Sep-18 14:41 34.710834 -120.176539 181 4945ft 116kts
22-Sep-18 14:42 34.678781 -120.174386 181 4944ft 115kts
22-Sep-18 14:43 34.646679 -120.172224 181 4944ft 115kts
22-Sep-18 14:44 34.614566 -120.170059 181 4944ft 115kts
22-Sep-18 14:45 34.582503 -120.167745 180 4944ft 116kts
22-Sep-18 14:46 34.550332 -120.163526 177 4945ft 116kts
22-Sep-18 14:47 34.519612 -120.157237 174 4946ft 117kts
22-Sep-18 14:48 34.487798 -120.148345 170 4949ft 117kts
22-Sep-18 14:49 34.456173 -120.137057 167 4951ft 119kts
22-Sep-18 14:50 34.433473 -120.109678 114 4955ft 130kts
22-Sep-18 14:51 34.421217 -120.068507 114 4960ft 130kts
22-Sep-18 14:52 34.408920 -120.026975 113 4966ft 131kts
22-Sep-18 14:53 34.396607 -119.985302 113 4972ft 131kts
22-Sep-18 14:54 34.384255 -119.943538 113 4972ft 132kts
22-Sep-18 14:55 34.371877 -119.901720 113 4972ft 132kts
22-Sep-18 14:56 34.359496 -119.859933 113 4972ft 132kts
22-Sep-18 14:57 34.347763 -119.820420 113 4972ft 132kts
22-Sep-18 14:58 34.335544 -119.779284 113 4972ft 132kts
22-Sep-18 14:59 34.323830 -119.739896 113 4972ft 132kts
22-Sep-18 15:00 34.311772 -119.699439 113 4971ft 132kts
22-Sep-18 15:01 34.299318 -119.657698 113 4970ft 132kts
22-Sep-18 15:02 34.286775 -119.615727 113 4969ft 132kts
22-Sep-18 15:03 34.274275 -119.573966 114 4968ft 132kts
22-Sep-18 15:04 34.261705 -119.532027 114 4966ft 132kts
22-Sep-18 15:05 34.255768 -119.493801 81 4965ft 135kts
22-Sep-18 15:06 34.261304 -119.456526 81 4947ft 138kts
22-Sep-18 15:07 34.268167 -119.410782 81 4947ft 138kts
22-Sep-18 15:08 34.275032 -119.365063 81 4947ft 138kts
22-Sep-18 15:09 34.281455 -119.322360 81 4943ft 137kts
22-Sep-18 15:10 34.288275 -119.276894 81 4943ft 137kts
22-Sep-18 15:11 34.294748 -119.234506 81 4991ft 134kts
22-Sep-18 15:12 34.301636 -119.191096 81 4998ft 135kts
22-Sep-18 15:13 34.308903 -119.146479 81 4999ft 135kts
22-Sep-18 15:14 34.310126 -119.102490 106 4998ft 129kts
22-Sep-18 15:15 34.303020 -119.059794 106 4999ft 128kts
22-Sep-18 15:16 34.295979 -119.017579 106 4999ft 128kts
22-Sep-18 15:17 34.288897 -118.975496 106 4999ft 127kts
22-Sep-18 15:18 34.281756 -118.933557 106 4999ft 127kts
22-Sep-18 15:19 34.274782 -118.893080 106 4999ft 126kts
22-Sep-18 15:20 34.255136 -118.863729 151 4667ft 110kts
22-Sep-18 15:21 34.228159 -118.842018 151 4068ft 120kts
22-Sep-18 15:22 34.204649 -118.852053 227 4020ft 105kts
22-Sep-18 15:23 34.198544 -118.885355 272 3964ft 102kts
22-Sep-18 15:24 34.198159 -118.916079 266 3997ft 94kts
22-Sep-18 15:25 34.199037 -118.947624 266 4018ft 91kts
22-Sep-18 15:26 34.198932 -118.978957 264 3731ft 96kts
22-Sep-18 15:27 34.199103 -119.011066 267 3210ft 96kts
22-Sep-18 15:28 34.199535 -119.043661 270 2620ft 97kts
22-Sep-18 15:29 34.199805 -119.075669 269 2110ft 95kts
22-Sep-18 15:30 34.200112 -119.107921 270 1544ft 95kts
22-Sep-18 15:31 34.200369 -119.139391 270 1058ft 93kts
22-Sep-18 15:32 34.200486 -119.167057 268 627ft 69kts
22-Sep-18 15:33 34.200641 -119.187563 268 276ft 54kts
22-Sep-18 15:34 34.200782 -119.203530 272 40ft 26kts
22-Sep-18 15:35 34.199935 -119.207097 180 37ft 0kts
22-Sep-18 15:36 34.199855 -119.207101 182 37ft 8kts

Navigation Log

Ident Type
Flight plan parsing failed, navigation log unavailable